CYIK

Ivujivik Airport

Ivujivik, Quebec, Canada
METAR CYIK 202100Z 21006KT 15SM SCT012 M07/M09 A3037 RMK SC4 SN TR LOOSE LAST STFD OBS/NEXT 211200UTC SLP290
Observed Flight Rules
Apr-20 @ 21:00 UTC (7 hours ago) Visual Flight Rules
Wind Visibility Clouds
210° at 6 knots 15 miles
  • Scattered at 1,200' AGL
Temperatures Readings
Current -7°C / 19°F
Dewpoint -9°C / 16°F
Humidity 86%
Altimeter 30.37" Hg
Pressure 1029 hPa
Elevation 42
METAR CYIK 202100Z 21006KT 15SM SCT012 M07/M09 A3037 RMK SC4 SN TR LOOSE LAST STFD OBS/NEXT 211200UTC SLP290
Observed Flight Rules
Apr-20 @ 21:00 UTC
(7 hours ago)
VFR
Wind Visibility
210° at 6 knots 15 miles
Clouds
  • Scattered at 1,200' AGL
Temperature Dewpoint
-7°C / 19°F -9°C / 16°F
Humidity Altimeter Pressure
86% 30.37" Hg 1029 hPa